Terminal Aerodrome Forecast
Issued by NWS

Current Version | Previous Version | Text Only | Print | Product List | Glossary On
Versions: 1 2 3 4 5 6 7 8 9 10 11 12 13 14 15 16 17 18 19 20 21 22 23 24 25 26 27 28 29 30 31 32 33 34 35 36
000
FTUS42 KGSP 251134
TAFHKY
TAF
KHKY 251134Z 2512/2612 01005KT P6SM FEW060 BKN250
     FM251500 04008KT P6SM SCT060 BKN250
     FM260200 04003KT P6SM BKN045
     FM260500 04004KT P6SM BKN015
     FM260600 03004KT P6SM BKN008
     FM261000 05004KT 5SM BR BKN007=

USA.gov is the U.S. government's official web portal to all federal, state and local government web resources and services.